Time;durP1;ratioP1;P1;durP2;ratioP2;P2;SDS_P1;SDS_P2;PMS_P1;PMS_P2;Temp;Humidity;BMP_temperature;BMP_pressure;BME280_temperature;BME280_humidity;BME280_pressure;Samples;Min_cycle;Max_cycle;Signal;HPM_P1;HPM_P2
2021/09/09 00:00:04;;;;;;;15.90;14.40;;;;;;;;;;5014000;28;20241;-73
2021/09/09 00:02:30;;;;;;;17.67;15.57;;;;;;;;;;5015399;28;20294;-73
2021/09/09 00:04:56;;;;;;;17.67;15.87;;;;;;;;;;5015132;28;20659;-73
2021/09/09 00:07:23;;;;;;;16.03;14.17;;;;;;;;;;5015628;28;20234;-73
2021/09/09 00:09:49;;;;;;;16.93;14.90;;;;;;;;;;5016761;28;20782;-73
2021/09/09 00:12:17;;;;;;;16.30;14.67;;;;;;;;;;5014651;28;20227;-73
2021/09/09 00:14:43;;;;;;;17.60;15.63;;;;;;;;;;5014130;28;20203;-73
2021/09/09 00:17:10;;;;;;;17.17;15.47;;;;;;;;;;5015500;28;20219;-73
2021/09/09 00:19:36;;;;;;;18.10;15.60;;;;;;;;;;5014608;28;20250;-73
2021/09/09 00:22:03;;;;;;;16.90;15.20;;;;;;;;;;5016357;28;20235;-73
2021/09/09 00:24:29;;;;;;;17.90;16.07;;;;;;;;;;5016024;28;20219;-73
2021/09/09 00:26:56;;;;;;;17.50;15.80;;;;;;;;;;5015820;28;20644;-73
2021/09/09 00:29:23;;;;;;;17.43;15.53;;;;;;;;;;5013813;28;20299;-73
2021/09/09 00:31:51;;;;;;;17.17;15.13;;;;;;;;;;5016317;28;20711;-73
2021/09/09 00:34:17;;;;;;;18.07;16.17;;;;;;;;;;5013984;28;20215;-73
2021/09/09 00:36:43;;;;;;;16.70;15.00;;;;;;;;;;5015097;28;20285;-72
2021/09/09 00:39:10;;;;;;;18.33;16.10;;;;;;;;;;5014544;28;20755;-72
2021/09/09 00:41:36;;;;;;;18.00;16.00;;;;;;;;;;5014562;28;20221;-73
2021/09/09 00:44:03;;;;;;;17.43;15.63;;;;;;;;;;5017816;28;20227;-73
2021/09/09 00:46:31;;;;;;;18.13;16.33;;;;;;;;;;5018030;28;20218;-72
2021/09/09 00:48:58;;;;;;;19.70;16.30;;;;;;;;;;5019130;28;20207;-72
2021/09/09 00:51:25;;;;;;;17.87;15.43;;;;;;;;;;5017827;28;20920;-72
2021/09/09 00:53:52;;;;;;;18.00;16.20;;;;;;;;;;5019805;28;20211;-73
2021/09/09 00:56:20;;;;;;;18.57;16.63;;;;;;;;;;5018362;28;20231;-72
2021/09/09 00:58:46;;;;;;;18.47;16.57;;;;;;;;;;5019427;28;21113;-72
2021/09/09 01:01:13;;;;;;;19.30;17.40;;;;;;;;;;5017517;28;20871;-73
2021/09/09 01:03:41;;;;;;;17.77;15.97;;;;;;;;;;5019735;28;20219;-73
2021/09/09 01:06:07;;;;;;;19.33;17.27;;;;;;;;;;5018010;28;20218;-73
2021/09/09 01:08:34;;;;;;;19.77;17.70;;;;;;;;;;5019564;28;20220;-73
2021/09/09 01:11:01;;;;;;;19.03;17.33;;;;;;;;;;5018917;28;20220;-73
2021/09/09 01:13:27;;;;;;;18.60;16.80;;;;;;;;;;5018243;28;20665;-73
2021/09/09 01:15:53;;;;;;;20.33;18.23;;;;;;;;;;5020479;28;20261;-73
2021/09/09 01:18:20;;;;;;;20.50;18.03;;;;;;;;;;5018232;28;20657;-73
2021/09/09 01:20:48;;;;;;;19.17;17.10;;;;;;;;;;5017723;28;20245;-73
2021/09/09 01:23:14;;;;;;;20.17;18.07;;;;;;;;;;5016878;28;20662;-72
2021/09/09 01:25:42;;;;;;;18.83;16.93;;;;;;;;;;5018240;28;20266;-72
2021/09/09 01:28:08;;;;;;;19.50;17.50;;;;;;;;;;5016353;28;20233;-73
2021/09/09 01:30:37;;;;;;;19.80;17.77;;;;;;;;;;5018132;28;20300;-73
2021/09/09 01:33:04;;;;;;;20.47;18.47;;;;;;;;;;5017494;28;20270;-73
2021/09/09 01:35:31;;;;;;;19.80;17.73;;;;;;;;;;5018481;28;20558;-72
2021/09/09 01:37:57;;;;;;;20.63;18.53;;;;;;;;;;5018196;28;20246;-72
2021/09/09 01:40:28;;;;;;;22.47;18.47;;;;;;;;;;5017201;28;20672;-72
2021/09/09 01:42:56;;;;;;;19.93;17.93;;;;;;;;;;5016521;28;20253;-72
2021/09/09 01:45:23;;;;;;;20.73;18.60;;;;;;;;;;5018065;28;20284;-72
2021/09/09 01:47:49;;;;;;;20.73;18.50;;;;;;;;;;5017046;28;20266;-72
2021/09/09 01:50:16;;;;;;;19.90;18.10;;;;;;;;;;5017065;28;20219;-72
2021/09/09 01:52:42;;;;;;;20.43;18.33;;;;;;;;;;5017889;28;20235;-73
2021/09/09 01:55:09;;;;;;;20.83;18.73;;;;;;;;;;5014614;28;20222;-72
2021/09/09 01:57:35;;;;;;;21.70;19.53;;;;;;;;;;5017294;28;20268;-72
2021/09/09 02:00:04;;;;;;;21.00;18.90;;;;;;;;;;5017524;28;20296;-72
2021/09/09 02:02:31;;;;;;;21.50;19.10;;;;;;;;;;5018114;28;20668;-72
2021/09/09 02:04:57;;;;;;;21.80;19.50;;;;;;;;;;5016711;28;20588;-72
2021/09/09 02:07:23;;;;;;;21.23;19.03;;;;;;;;;;5017440;28;20829;-72
2021/09/09 02:09:50;;;;;;;20.77;18.67;;;;;;;;;;5015905;28;20215;-72
2021/09/09 02:12:16;;;;;;;21.43;18.63;;;;;;;;;;5014719;28;20654;-72
2021/09/09 02:14:42;;;;;;;21.50;19.30;;;;;;;;;;5015504;28;20266;-72
2021/09/09 02:17:10;;;;;;;21.33;19.27;;;;;;;;;;5015323;28;20263;-72
2021/09/09 02:19:36;;;;;;;22.80;19.03;;;;;;;;;;5018360;28;20230;-72
2021/09/09 02:22:03;;;;;;;21.40;19.07;;;;;;;;;;5016889;28;20281;-72
2021/09/09 02:24:30;;;;;;;21.13;19.07;;;;;;;;;;5017239;28;20220;-72
2021/09/09 02:26:56;;;;;;;22.27;20.03;;;;;;;;;;5015652;28;20219;-72
2021/09/09 02:29:23;;;;;;;23.33;19.40;;;;;;;;;;5017478;28;20243;-72
2021/09/09 02:31:49;;;;;;;22.43;20.20;;;;;;;;;;5018378;28;20210;-72
2021/09/09 02:34:17;;;;;;;21.83;19.53;;;;;;;;;;5017725;28;20219;-72
2021/09/09 02:36:43;;;;;;;23.53;20.23;;;;;;;;;;5018118;28;20238;-72
2021/09/09 02:39:09;;;;;;;22.37;19.97;;;;;;;;;;5015313;28;20302;-72
2021/09/09 02:41:36;;;;;;;23.57;20.37;;;;;;;;;;5016662;28;20239;-72
2021/09/09 02:44:02;;;;;;;22.07;19.80;;;;;;;;;;5016340;28;20220;-72
2021/09/09 02:46:29;;;;;;;22.63;20.00;;;;;;;;;;5014662;28;20350;-72
2021/09/09 02:48:55;;;;;;;22.47;19.80;;;;;;;;;;5016533;28;20911;-72
2021/09/09 02:51:23;;;;;;;22.97;20.60;;;;;;;;;;5017698;28;20688;-72
2021/09/09 02:53:49;;;;;;;22.30;20.07;;;;;;;;;;5016514;28;20222;-72
2021/09/09 02:56:15;;;;;;;24.33;21.73;;;;;;;;;;5016049;28;20215;-72
2021/09/09 02:58:42;;;;;;;23.73;20.87;;;;;;;;;;5018384;28;20208;-72
2021/09/09 03:01:08;;;;;;;25.27;22.63;;;;;;;;;;5015216;28;20232;-71
2021/09/09 03:03:34;;;;;;;25.73;21.33;;;;;;;;;;5018263;28;20218;-71
2021/09/09 03:06:01;;;;;;;23.67;20.77;;;;;;;;;;5014679;28;20223;-71
2021/09/09 03:08:28;;;;;;;24.30;21.03;;;;;;;;;;5018104;28;20215;-71
2021/09/09 03:10:55;;;;;;;22.93;20.63;;;;;;;;;;5015775;28;20256;-71
2021/09/09 03:13:21;;;;;;;23.20;20.80;;;;;;;;;;5016935;28;20221;-71
2021/09/09 03:15:48;;;;;;;24.40;21.63;;;;;;;;;;5017183;28;20297;-71
2021/09/09 03:18:14;;;;;;;23.53;20.90;;;;;;;;;;5016093;28;20221;-71
2021/09/09 03:20:40;;;;;;;23.53;21.00;;;;;;;;;;5015514;28;20247;-71
2021/09/09 03:23:07;;;;;;;25.73;21.97;;;;;;;;;;5016638;28;20265;-71
2021/09/09 03:25:34;;;;;;;23.47;20.97;;;;;;;;;;5016974;28;20218;-71
2021/09/09 03:28:01;;;;;;;24.63;22.10;;;;;;;;;;5016196;28;20217;-71
2021/09/09 03:30:32;;;;;;;24.23;21.73;;;;;;;;;;5014507;28;20251;-73
2021/09/09 03:33:00;;;;;;;22.63;20.30;;;;;;;;;;5015680;28;20242;-74
2021/09/09 03:35:27;;;;;;;23.30;20.97;;;;;;;;;;5015800;28;20222;-74
2021/09/09 03:37:53;;;;;;;24.07;21.57;;;;;;;;;;5015554;28;20238;-74
2021/09/09 03:40:20;;;;;;;24.23;21.63;;;;;;;;;;5015628;28;20242;-74
2021/09/09 03:42:48;;;;;;;23.93;21.53;;;;;;;;;;5014703;28;20243;-74
2021/09/09 03:45:19;;;;;;;24.23;21.83;;;;;;;;;;5016142;28;20300;-73
2021/09/09 03:47:55;;;;;;;25.53;22.97;;;;;;;;;;5017215;28;20215;-73
2021/09/09 03:50:22;;;;;;;24.27;21.67;;;;;;;;;;5019081;28;20209;-74
2021/09/09 03:52:51;;;;;;;24.63;22.10;;;;;;;;;;5018477;28;20233;-74
2021/09/09 03:55:23;;;;;;;24.80;22.07;;;;;;;;;;5016004;28;20246;-74
2021/09/09 03:57:51;;;;;;;25.03;22.47;;;;;;;;;;5015545;28;21044;-74
2021/09/09 04:00:18;;;;;;;25.23;22.53;;;;;;;;;;5015975;28;20213;-73
2021/09/09 04:02:45;;;;;;;25.27;22.57;;;;;;;;;;5015542;28;20223;-74
2021/09/09 04:05:12;;;;;;;24.10;21.73;;;;;;;;;;5017181;28;20217;-74
2021/09/09 04:07:41;;;;;;;24.63;22.03;;;;;;;;;;5015624;28;20684;-74
2021/09/09 04:10:10;;;;;;;25.50;22.03;;;;;;;;;;5014975;28;20226;-74
2021/09/09 04:12:40;;;;;;;25.23;22.73;;;;;;;;;;5015275;28;20217;-73
2021/09/09 04:15:09;;;;;;;25.53;22.93;;;;;;;;;;5017080;28;20229;-74
2021/09/09 04:17:36;;;;;;;31.20;24.30;;;;;;;;;;5018769;28;20551;-74
2021/09/09 04:20:03;;;;;;;24.43;22.03;;;;;;;;;;5019628;28;20214;-73
2021/09/09 04:22:29;;;;;;;25.30;22.60;;;;;;;;;;5019688;28;20245;-73
2021/09/09 04:24:58;;;;;;;25.80;23.23;;;;;;;;;;5018592;28;20289;-73
2021/09/09 04:27:25;;;;;;;27.20;23.93;;;;;;;;;;5019126;28;20210;-74
2021/09/09 04:29:52;;;;;;;25.33;22.73;;;;;;;;;;5017814;28;20270;-73
2021/09/09 04:32:24;;;;;;;28.50;25.88;;;;;;;;;;5018248;28;20442;-76
2021/09/09 04:34:55;;;;;;;25.83;23.33;;;;;;;;;;5020310;28;20222;-76
2021/09/09 04:37:21;;;;;;;24.97;22.47;;;;;;;;;;5017254;28;20286;-76
2021/09/09 04:39:48;;;;;;;24.93;22.33;;;;;;;;;;5018233;28;20222;-76
2021/09/09 04:42:16;;;;;;;27.53;24.23;;;;;;;;;;5020687;28;20243;-76
2021/09/09 04:44:47;;;;;;;27.37;22.50;;;;;;;;;;5018380;28;20278;-77
2021/09/09 04:47:13;;;;;;;26.97;23.00;;;;;;;;;;5017832;28;20223;-77
2021/09/09 04:49:42;;;;;;;24.33;21.93;;;;;;;;;;5017351;28;20222;-76
2021/09/09 04:52:08;;;;;;;26.63;23.80;;;;;;;;;;5017293;28;20283;-76
2021/09/09 04:54:35;;;;;;;26.40;23.80;;;;;;;;;;5017724;28;20714;-74
2021/09/09 04:57:02;;;;;;;25.17;22.47;;;;;;;;;;5017087;28;20237;-74
2021/09/09 04:59:28;;;;;;;27.33;24.23;;;;;;;;;;5016530;28;20215;-74
2021/09/09 05:01:55;;;;;;;24.83;22.40;;;;;;;;;;5018178;28;20233;-74
2021/09/09 05:04:21;;;;;;;26.70;22.87;;;;;;;;;;5019428;28;20225;-77
2021/09/09 05:06:49;;;;;;;27.87;24.87;;;;;;;;;;5018217;28;20310;-77
2021/09/09 05:09:16;;;;;;;27.30;24.47;;;;;;;;;;5016461;28;20215;-76
2021/09/09 05:11:42;;;;;;;27.37;24.23;;;;;;;;;;5017976;28;20215;-76
2021/09/09 05:14:08;;;;;;;27.63;23.73;;;;;;;;;;5018422;28;20209;-74
2021/09/09 05:16:35;;;;;;;27.13;24.40;;;;;;;;;;5016647;28;20956;-74
2021/09/09 05:19:02;;;;;;;27.23;24.43;;;;;;;;;;5016775;28;20218;-74
2021/09/09 05:21:28;;;;;;;29.83;24.47;;;;;;;;;;5018859;28;20245;-74
2021/09/09 05:23:56;;;;;;;27.13;24.33;;;;;;;;;;5018068;28;20659;-74
2021/09/09 05:26:24;;;;;;;29.00;26.00;;;;;;;;;;5018103;28;20224;-76
2021/09/09 05:28:50;;;;;;;28.27;25.33;;;;;;;;;;5017682;28;20266;-77
2021/09/09 05:31:17;;;;;;;27.83;23.90;;;;;;;;;;5015161;28;20254;-76
2021/09/09 05:33:43;;;;;;;27.37;24.47;;;;;;;;;;5017803;28;20649;-75
2021/09/09 05:36:10;;;;;;;26.10;23.50;;;;;;;;;;5016699;28;20255;-75
2021/09/09 05:38:36;;;;;;;27.53;24.73;;;;;;;;;;5015780;28;20225;-76
2021/09/09 05:41:04;;;;;;;26.10;23.30;;;;;;;;;;5016121;28;20576;-77
2021/09/09 05:43:31;;;;;;;27.60;23.93;;;;;;;;;;5015552;28;20211;-75
2021/09/09 05:45:57;;;;;;;26.00;23.33;;;;;;;;;;5017542;28;20738;-76
2021/09/09 05:48:23;;;;;;;26.87;24.13;;;;;;;;;;5018376;28;20226;-77
2021/09/09 05:50:50;;;;;;;26.93;23.47;;;;;;;;;;5017222;28;20581;-75
2021/09/09 05:53:16;;;;;;;25.77;23.03;;;;;;;;;;5017099;28;20234;-78
2021/09/09 05:55:43;;;;;;;26.00;23.30;;;;;;;;;;5016732;28;20227;-77
2021/09/09 05:58:11;;;;;;;26.30;23.13;;;;;;;;;;5015327;28;20268;-76
2021/09/09 06:00:37;;;;;;;25.77;23.07;;;;;;;;;;5017713;28;20222;-76
2021/09/09 06:03:04;;;;;;;26.03;23.33;;;;;;;;;;5017037;28;20211;-77
2021/09/09 06:05:32;;;;;;;25.77;22.93;;;;;;;;;;5015353;28;20224;-77
2021/09/09 06:07:59;;;;;;;25.97;23.27;;;;;;;;;;5016428;28;20228;-76
2021/09/09 06:10:25;;;;;;;25.57;22.77;;;;;;;;;;5012442;28;20704;-76
2021/09/09 06:12:52;;;;;;;27.97;22.90;;;;;;;;;;5015285;28;20223;-77
2021/09/09 06:15:20;;;;;;;25.63;22.97;;;;;;;;;;5014381;28;20303;-77
2021/09/09 06:17:46;;;;;;;26.73;22.07;;;;;;;;;;5013774;28;20203;-77
2021/09/09 06:20:14;;;;;;;24.17;21.60;;;;;;;;;;5015372;28;20211;-77
2021/09/09 06:22:42;;;;;;;24.87;22.47;;;;;;;;;;5012848;28;20317;-77
2021/09/09 06:25:09;;;;;;;26.43;23.70;;;;;;;;;;5015186;28;20220;-77
2021/09/09 06:27:36;;;;;;;25.37;22.47;;;;;;;;;;5012918;28;20745;-77
2021/09/09 06:30:03;;;;;;;24.40;21.93;;;;;;;;;;5014534;28;20259;-77
2021/09/09 06:32:31;;;;;;;23.93;21.73;;;;;;;;;;5013937;28;20216;-77
2021/09/09 06:34:57;;;;;;;25.07;22.47;;;;;;;;;;5015739;28;20227;-77
2021/09/09 06:37:24;;;;;;;25.23;22.83;;;;;;;;;;5014403;28;20366;-77
2021/09/09 06:39:50;;;;;;;23.83;21.53;;;;;;;;;;5013606;28;20602;-77
2021/09/09 06:42:17;;;;;;;25.27;22.53;;;;;;;;;;5014468;28;20239;-76
2021/09/09 06:44:43;;;;;;;28.10;22.73;;;;;;;;;;5013883;28;20267;-77
2021/09/09 06:47:10;;;;;;;24.23;21.87;;;;;;;;;;5013579;28;20221;-77
2021/09/09 06:49:37;;;;;;;24.97;22.33;;;;;;;;;;5013427;28;20754;-77
2021/09/09 06:52:04;;;;;;;24.97;21.87;;;;;;;;;;5014555;28;20234;-77
2021/09/09 06:54:31;;;;;;;25.17;22.73;;;;;;;;;;5014154;28;20572;-77
2021/09/09 06:56:57;;;;;;;28.87;22.97;;;;;;;;;;5014153;28;20228;-77
2021/09/09 06:59:24;;;;;;;25.07;22.47;;;;;;;;;;5013123;28;20619;-76
2021/09/09 07:01:50;;;;;;;28.63;21.80;;;;;;;;;;5012991;28;20255;-77
2021/09/09 07:04:17;;;;;;;24.07;21.70;;;;;;;;;;5012073;28;20223;-76
2021/09/09 07:06:44;;;;;;;24.03;21.53;;;;;;;;;;5012980;28;20234;-77
2021/09/09 07:09:11;;;;;;;23.13;20.87;;;;;;;;;;5012955;28;20225;-77
2021/09/09 07:11:37;;;;;;;27.27;22.53;;;;;;;;;;5016583;28;20563;-77
2021/09/09 07:14:03;;;;;;;25.93;22.27;;;;;;;;;;5013721;28;20353;-76
2021/09/09 07:16:32;;;;;;;25.07;21.80;;;;;;;;;;5014216;28;20217;-76
2021/09/09 07:18:59;;;;;;;24.97;22.47;;;;;;;;;;5014655;28;20640;-76
2021/09/09 07:21:25;;;;;;;24.43;21.33;;;;;;;;;;5014426;28;20236;-77
2021/09/09 07:23:53;;;;;;;23.70;21.30;;;;;;;;;;5014712;28;20672;-77
2021/09/09 07:26:19;;;;;;;23.10;20.83;;;;;;;;;;5016212;28;20221;-76
2021/09/09 07:28:46;;;;;;;23.80;21.40;;;;;;;;;;5013320;28;20216;-76
2021/09/09 07:31:12;;;;;;;23.57;20.83;;;;;;;;;;5015494;28;20222;-76
2021/09/09 07:33:39;;;;;;;25.07;22.10;;;;;;;;;;5014033;28;20802;-76
2021/09/09 07:36:07;;;;;;;23.00;20.17;;;;;;;;;;5011703;28;20246;-76
2021/09/09 07:38:34;;;;;;;23.57;21.10;;;;;;;;;;5013162;28;20324;-76
2021/09/09 07:41:01;;;;;;;21.90;19.40;;;;;;;;;;5011650;28;20215;-77
2021/09/09 07:43:28;;;;;;;23.10;20.77;;;;;;;;;;5013039;28;20330;-76
2021/09/09 07:45:55;;;;;;;23.23;20.93;;;;;;;;;;5013634;28;20537;-77
2021/09/09 07:48:22;;;;;;;21.73;19.43;;;;;;;;;;5013717;28;20553;-77
2021/09/09 07:50:49;;;;;;;22.67;20.43;;;;;;;;;;5011336;28;20215;-78
2021/09/09 07:53:15;;;;;;;22.47;20.27;;;;;;;;;;5011875;28;20228;-76
2021/09/09 07:55:42;;;;;;;23.03;20.67;;;;;;;;;;5013725;28;20219;-77
2021/09/09 07:58:09;;;;;;;23.33;21.03;;;;;;;;;;5013576;28;20219;-75
2021/09/09 08:00:36;;;;;;;23.33;21.03;;;;;;;;;;5011535;28;20280;-76
2021/09/09 08:03:03;;;;;;;21.53;19.53;;;;;;;;;;5013123;28;20238;-76
2021/09/09 08:05:29;;;;;;;22.00;19.73;;;;;;;;;;5013683;28;20700;-76
2021/09/09 08:07:55;;;;;;;22.90;20.50;;;;;;;;;;5011787;28;20725;-76
2021/09/09 08:10:22;;;;;;;30.13;20.90;;;;;;;;;;5012978;28;20208;-76
2021/09/09 08:12:49;;;;;;;23.97;20.03;;;;;;;;;;5015577;28;20222;-76
2021/09/09 08:15:17;;;;;;;22.67;19.60;;;;;;;;;;5013747;28;20203;-76
2021/09/09 08:17:44;;;;;;;23.07;20.80;;;;;;;;;;5014050;28;21092;-76
2021/09/09 08:20:12;;;;;;;24.47;20.80;;;;;;;;;;5014150;28;20216;-77
2021/09/09 08:22:39;;;;;;;22.10;19.93;;;;;;;;;;5012348;28;20321;-76
2021/09/09 08:25:06;;;;;;;21.80;19.90;;;;;;;;;;5014318;28;20224;-76
2021/09/09 08:27:32;;;;;;;24.60;22.17;;;;;;;;;;5012793;28;20219;-76
2021/09/09 08:29:59;;;;;;;24.00;19.93;;;;;;;;;;5013136;28;20864;-76
2021/09/09 08:32:27;;;;;;;22.47;20.17;;;;;;;;;;5014373;28;20225;-76
2021/09/09 08:34:54;;;;;;;22.53;20.40;;;;;;;;;;5012411;28;20215;-76
2021/09/09 08:37:20;;;;;;;22.03;18.93;;;;;;;;;;5012355;28;20231;-76
2021/09/09 08:39:47;;;;;;;22.47;20.27;;;;;;;;;;5011965;28;20212;-76
2021/09/09 08:42:14;;;;;;;27.70;20.43;;;;;;;;;;5013264;28;20882;-78
2021/09/09 08:44:40;;;;;;;20.53;18.60;;;;;;;;;;5015391;28;20292;-77
2021/09/09 08:47:09;;;;;;;20.53;18.63;;;;;;;;;;5010401;28;20270;-76
2021/09/09 08:49:38;;;;;;;22.10;19.03;;;;;;;;;;5015737;28;20216;-77
2021/09/09 08:52:05;;;;;;;20.50;18.60;;;;;;;;;;5011530;28;20231;-77
2021/09/09 08:54:32;;;;;;;21.63;19.60;;;;;;;;;;5011934;28;20214;-76
2021/09/09 08:56:59;;;;;;;20.27;18.23;;;;;;;;;;5012791;28;20222;-76
2021/09/09 08:59:25;;;;;;;19.63;17.77;;;;;;;;;;5014823;28;20734;-76
2021/09/09 09:02:03;;;;;;;42.80;20.20;;;;;;;;;;5012602;28;20282;-76
2021/09/09 09:04:31;;;;;;;19.73;17.87;;;;;;;;;;5017418;28;20284;-76
2021/09/09 09:06:59;;;;;;;19.67;17.73;;;;;;;;;;5017104;28;20235;-76
2021/09/09 09:09:26;;;;;;;18.30;16.63;;;;;;;;;;5016789;28;20309;-76
2021/09/09 09:11:53;;;;;;;23.63;18.23;;;;;;;;;;5016074;28;20207;-76
2021/09/09 09:14:21;;;;;;;20.17;16.80;;;;;;;;;;5016326;28;20218;-76
2021/09/09 09:16:52;;;;;;;19.37;16.03;;;;;;;;;;5016238;28;20336;-77
2021/09/09 09:19:21;;;;;;;22.10;17.10;;;;;;;;;;5013844;28;20717;-76
2021/09/09 09:21:52;;;;;;;17.53;15.43;;;;;;;;;;5016485;28;20691;-76
2021/09/09 09:24:21;;;;;;;17.27;15.47;;;;;;;;;;5015512;28;20222;-76
2021/09/09 09:27:08;;;;;;;21.77;16.63;;;;;;;;;;5016053;28;20234;-76
2021/09/09 09:29:35;;;;;;;17.60;15.77;;;;;;;;;;5015147;28;20299;-76
2021/09/09 09:32:13;;;;;;;19.13;17.33;;;;;;;;;;5013812;28;20435;-74
2021/09/09 09:34:39;;;;;;;18.67;16.87;;;;;;;;;;5015389;28;20219;-74
2021/09/09 09:37:06;;;;;;;20.13;16.83;;;;;;;;;;5014531;28;20237;-75
2021/09/09 09:39:34;;;;;;;19.20;16.17;;;;;;;;;;5017367;28;20221;-75
2021/09/09 09:42:04;;;;;;;20.87;15.97;;;;;;;;;;5015901;28;20218;-74
2021/09/09 09:44:33;;;;;;;19.93;17.97;;;;;;;;;;5015356;28;20231;-74
2021/09/09 09:47:11;;;;;;;18.03;16.30;;;;;;;;;;5014146;28;20624;-74
2021/09/09 09:49:42;;;;;;;17.63;16.03;;;;;;;;;;5016414;28;20737;-75
2021/09/09 09:52:09;;;;;;;16.53;15.13;;;;;;;;;;5016491;28;20328;-73
2021/09/09 09:54:37;;;;;;;22.53;17.10;;;;;;;;;;5012162;28;20202;-73
2021/09/09 09:57:04;;;;;;;16.97;15.30;;;;;;;;;;5015820;28;20252;-75
2021/09/09 09:59:31;;;;;;;15.83;13.93;;;;;;;;;;5015611;28;20215;-74
2021/09/09 10:02:00;;;;;;;16.97;15.40;;;;;;;;;;5013783;28;20281;-74
2021/09/09 10:04:26;;;;;;;17.00;15.30;;;;;;;;;;5015102;28;20216;-74
2021/09/09 10:06:53;;;;;;;17.50;15.93;;;;;;;;;;5015680;28;20627;-74
2021/09/09 10:09:20;;;;;;;18.10;16.27;;;;;;;;;;5017525;28;20576;-74
2021/09/09 10:11:48;;;;;;;15.57;14.13;;;;;;;;;;5016156;28;20772;-74
2021/09/09 10:14:26;;;;;;;17.53;15.60;;;;;;;;;;5013314;28;20252;-74
2021/09/09 10:16:55;;;;;;;15.07;13.47;;;;;;;;;;5014989;28;20276;-74
2021/09/09 10:19:27;;;;;;;16.57;15.13;;;;;;;;;;5015285;28;20218;-74
2021/09/09 10:22:08;;;;;;;17.27;15.27;;;;;;;;;;5015593;28;20276;-74
2021/09/09 10:24:37;;;;;;;23.50;14.47;;;;;;;;;;5016114;28;20224;-74
2021/09/09 10:27:34;;;;;;;22.00;13.90;;;;;;;;;;5014833;28;20223;-74
2021/09/09 10:30:02;;;;;;;14.33;12.97;;;;;;;;;;4991815;28;20720;-74
2021/09/09 10:32:56;;;;;;;14.70;13.33;;;;;;;;;;5015786;28;20268;-74
2021/09/09 10:35:37;;;;;;;13.70;12.30;;;;;;;;;;5013948;28;20862;-74
2021/09/09 10:38:31;;;;;;;13.93;12.73;;;;;;;;;;5015188;28;20336;-74
2021/09/09 10:41:00;;;;;;;14.50;13.00;;;;;;;;;;5018998;28;20223;-74
2021/09/09 10:43:50;;;;;;;14.17;12.70;;;;;;;;;;5015311;28;20236;-74
2021/09/09 10:46:17;;;;;;;15.27;13.93;;;;;;;;;;5015021;28;20200;-74
2021/09/09 10:48:46;;;;;;;20.60;14.07;;;;;;;;;;5013074;28;20218;-74
2021/09/09 10:51:18;;;;;;;13.90;12.20;;;;;;;;;;5014840;28;20235;-74
2021/09/09 10:53:51;;;;;;;13.97;12.40;;;;;;;;;;5016206;28;20294;-75
2021/09/09 10:56:19;;;;;;;18.10;16.30;;;;;;;;;;5014955;28;20626;-74
2021/09/09 10:59:07;;;;;;;20.17;18.00;;;;;;;;;;5015319;28;20245;-74
2021/09/09 11:01:34;;;;;;;19.20;17.60;;;;;;;;;;5015280;28;20211;-74
2021/09/09 11:04:00;;;;;;;22.27;20.07;;;;;;;;;;5014118;28;20999;-74
2021/09/09 11:06:28;;;;;;;23.27;21.10;;;;;;;;;;5014585;28;20228;-74
2021/09/09 11:08:57;;;;;;;23.87;21.67;;;;;;;;;;5014781;28;20546;-74
2021/09/09 11:11:27;;;;;;;25.13;19.40;;;;;;;;;;5012834;28;20233;-74
2021/09/09 11:13:58;;;;;;;20.30;17.07;;;;;;;;;;5014490;28;20211;-74
2021/09/09 11:16:26;;;;;;;17.50;15.77;;;;;;;;;;5013614;28;20551;-74
2021/09/09 11:18:53;;;;;;;17.40;15.43;;;;;;;;;;5013760;28;20683;-74
2021/09/09 11:21:22;;;;;;;17.43;15.80;;;;;;;;;;5013639;28;20278;-74
2021/09/09 11:23:51;;;;;;;32.33;18.20;;;;;;;;;;5016153;28;20289;-75
2021/09/09 11:26:19;;;;;;;19.53;17.33;;;;;;;;;;5016570;28;20317;-75
2021/09/09 11:28:45;;;;;;;24.73;16.27;;;;;;;;;;5014308;28;20228;-74
2021/09/09 11:31:16;;;;;;;17.90;16.13;;;;;;;;;;5014166;28;20216;-74
2021/09/09 11:33:50;;;;;;;20.87;18.83;;;;;;;;;;5015676;28;20634;-72
2021/09/09 11:36:18;;;;;;;22.53;19.20;;;;;;;;;;5013612;28;20239;-75
2021/09/09 11:38:44;;;;;;;23.27;17.77;;;;;;;;;;5015193;28;20262;-75
2021/09/09 11:41:13;;;;;;;21.23;18.33;;;;;;;;;;5013405;28;20219;-75
2021/09/09 11:43:40;;;;;;;22.40;16.63;;;;;;;;;;5013939;28;20717;-74
2021/09/09 11:46:07;;;;;;;18.23;16.37;;;;;;;;;;5014095;28;21004;-75
2021/09/09 11:48:35;;;;;;;18.57;16.07;;;;;;;;;;5014307;28;20227;-74
2021/09/09 11:51:01;;;;;;;20.73;17.60;;;;;;;;;;5013710;28;20297;-77
2021/09/09 11:53:28;;;;;;;87.00;22.17;;;;;;;;;;5012981;28;20215;-73
2021/09/09 11:55:55;;;;;;;20.53;18.53;;;;;;;;;;5014418;28;20219;-73
2021/09/09 11:58:32;;;;;;;20.50;16.77;;;;;;;;;;5014579;28;20640;-74
2021/09/09 12:01:01;;;;;;;26.73;18.27;;;;;;;;;;5014257;28;20735;-74
2021/09/09 12:03:28;;;;;;;18.70;16.37;;;;;;;;;;5011654;28;20241;-73
2021/09/09 12:05:56;;;;;;;20.53;18.63;;;;;;;;;;5015493;28;20617;-74
2021/09/09 12:08:23;;;;;;;20.53;18.37;;;;;;;;;;5013532;28;20230;-74
2021/09/09 12:10:49;;;;;;;25.97;19.23;;;;;;;;;;5011461;28;20293;-73
2021/09/09 12:13:30;;;;;;;22.50;20.07;;;;;;;;;;5013604;28;20277;-74
2021/09/09 12:16:08;;;;;;;26.07;20.67;;;;;;;;;;5012358;28;21108;-74
2021/09/09 12:18:34;;;;;;;23.03;19.37;;;;;;;;;;5014735;28;20578;-73
2021/09/09 12:21:10;;;;;;;37.67;21.10;;;;;;;;;;5012566;28;20253;-75
2021/09/09 12:23:36;;;;;;;28.10;21.90;;;;;;;;;;5014773;28;20305;-75
2021/09/09 12:26:17;;;;;;;24.37;21.37;;;;;;;;;;5012884;28;20285;-74
2021/09/09 12:28:44;;;;;;;22.87;20.73;;;;;;;;;;5012520;28;20719;-74
2021/09/09 12:31:11;;;;;;;24.13;21.73;;;;;;;;;;5011694;28;20206;-77
2021/09/09 12:33:40;;;;;;;27.73;25.27;;;;;;;;;;5015146;28;20325;-75
2021/09/09 12:36:10;;;;;;;26.40;23.70;;;;;;;;;;5013039;28;21186;-75
2021/09/09 12:38:41;;;;;;;26.20;23.63;;;;;;;;;;5014860;28;20215;-74
2021/09/09 12:41:08;;;;;;;24.00;21.60;;;;;;;;;;5015759;28;20221;-74
2021/09/09 12:43:38;;;;;;;26.73;18.90;;;;;;;;;;5017358;28;20237;-74
2021/09/09 12:46:05;;;;;;;19.40;17.40;;;;;;;;;;5018005;28;20284;-74
2021/09/09 12:48:32;;;;;;;22.00;19.53;;;;;;;;;;5016232;28;20224;-74
2021/09/09 12:51:01;;;;;;;39.53;21.70;;;;;;;;;;5016112;28;20221;-74
2021/09/09 12:53:31;;;;;;;22.07;19.73;;;;;;;;;;5015723;28;20260;-74
2021/09/09 12:55:59;;;;;;;57.53;20.40;;;;;;;;;;5019754;28;20241;-74
2021/09/09 12:58:26;;;;;;;20.73;17.13;;;;;;;;;;5016084;28;20213;-74
2021/09/09 13:00:53;;;;;;;20.90;18.60;;;;;;;;;;5017504;28;20274;-74
2021/09/09 13:03:19;;;;;;;25.93;18.87;;;;;;;;;;5016275;28;20244;-74
2021/09/09 13:05:46;;;;;;;20.37;18.43;;;;;;;;;;5016530;28;20221;-74
2021/09/09 13:08:12;;;;;;;27.80;20.50;;;;;;;;;;5016394;28;20239;-74
2021/09/09 13:10:40;;;;;;;23.90;21.60;;;;;;;;;;5017303;28;20218;-74
2021/09/09 13:13:06;;;;;;;25.83;23.33;;;;;;;;;;5017640;28;20643;-74
2021/09/09 13:15:32;;;;;;;27.40;22.37;;;;;;;;;;5016698;28;20221;-74
2021/09/09 13:17:59;;;;;;;25.73;22.30;;;;;;;;;;5016231;28;20222;-74
2021/09/09 13:20:27;;;;;;;28.87;23.50;;;;;;;;;;5013345;28;20709;-74
2021/09/09 13:22:54;;;;;;;26.70;23.90;;;;;;;;;;5018002;28;20313;-74
2021/09/09 13:25:21;;;;;;;26.63;24.03;;;;;;;;;;5017787;28;20636;-74
2021/09/09 13:27:48;;;;;;;27.90;25.20;;;;;;;;;;5017031;28;20733;-74
2021/09/09 13:30:15;;;;;;;27.00;24.37;;;;;;;;;;5013889;28;20296;-74
2021/09/09 13:32:41;;;;;;;26.60;23.93;;;;;;;;;;5014327;28;20288;-74
2021/09/09 13:35:08;;;;;;;27.53;24.53;;;;;;;;;;5014413;28;20215;-74
2021/09/09 13:37:34;;;;;;;27.63;25.00;;;;;;;;;;5015423;28;20234;-74
2021/09/09 13:40:00;;;;;;;32.73;27.17;;;;;;;;;;5015454;28;20241;-74
2021/09/09 13:42:27;;;;;;;36.13;25.53;;;;;;;;;;5014357;28;20274;-74
2021/09/09 13:44:55;;;;;;;47.40;28.00;;;;;;;;;;5014118;28;20245;-74
2021/09/09 13:47:22;;;;;;;28.07;25.10;;;;;;;;;;5017954;28;20210;-74
2021/09/09 13:49:48;;;;;;;41.57;23.73;;;;;;;;;;5014518;28;20245;-75
2021/09/09 13:52:15;;;;;;;25.33;23.03;;;;;;;;;;5017400;28;20267;-75
2021/09/09 13:54:41;;;;;;;25.93;23.33;;;;;;;;;;5015889;28;20213;-75
2021/09/09 13:57:07;;;;;;;25.27;22.77;;;;;;;;;;5014124;28;20224;-75
2021/09/09 13:59:35;;;;;;;24.90;22.77;;;;;;;;;;5014507;28;20265;-74
2021/09/09 14:02:03;;;;;;;26.47;23.83;;;;;;;;;;5015002;28;20212;-74
2021/09/09 14:04:30;;;;;;;26.00;23.43;;;;;;;;;;5015448;28;20631;-75
2021/09/09 14:06:56;;;;;;;33.87;25.03;;;;;;;;;;5015115;28;20229;-74
2021/09/09 14:09:23;;;;;;;26.93;24.43;;;;;;;;;;5015022;28;20219;-74
2021/09/09 14:11:49;;;;;;;29.30;26.37;;;;;;;;;;5013770;28;20215;-74
2021/09/09 14:14:15;;;;;;;27.73;25.13;;;;;;;;;;5016843;28;20218;-74
2021/09/09 14:16:42;;;;;;;29.43;26.50;;;;;;;;;;5014849;28;20213;-74
2021/09/09 14:19:10;;;;;;;29.03;26.17;;;;;;;;;;5016131;28;20215;-75